Time;durP1;ratioP1;P1;durP2;ratioP2;P2;SDS_P1;SDS_P2;PMS_P1;PMS_P2;Temp;Humidity;BMP_temperature;BMP_pressure;BME280_temperature;BME280_humidity;BME280_pressure;Samples;Min_cycle;Max_cycle;Signal;HPM_P1;HPM_P2
2023/02/18 00:01:47;;;;;;;1.50;1.40;;;12.50;98.00;;;;;;5011426;28;20462;-69
2023/02/18 00:04:14;;;;;;;2.03;1.60;;;12.40;98.00;;;;;;5011545;28;20469;-69
2023/02/18 00:06:41;;;;;;;1.20;1.20;;;12.40;98.00;;;;;;5012074;28;20962;-70
2023/02/18 00:09:08;;;;;;;3.07;1.90;;;12.40;98.00;;;;;;5011457;28;20454;-69
2023/02/18 00:11:38;;;;;;;2.07;1.60;;;12.40;98.00;;;;;;5011733;28;20880;-69
2023/02/18 00:14:08;;;;;;;1.70;1.57;;;12.40;98.00;;;;;;5011478;28;20477;-69
2023/02/18 00:16:36;;;;;;;3.13;1.80;;;12.50;98.00;;;;;;5011557;28;20463;-69
2023/02/18 00:19:06;;;;;;;1.77;1.30;;;12.40;98.00;;;;;;5012205;28;20486;-69
2023/02/18 00:21:34;;;;;;;1.80;1.37;;;12.50;98.00;;;;;;5015646;28;20458;-69
2023/02/18 00:24:01;;;;;;;2.00;1.50;;;12.50;98.00;;;;;;5015653;28;20798;-69
2023/02/18 00:26:30;;;;;;;1.83;1.30;;;12.40;98.00;;;;;;5015383;28;20975;-69
2023/02/18 00:28:59;;;;;;;1.70;1.20;;;12.40;98.00;;;;;;5015149;28;20949;-69
2023/02/18 00:31:29;;;;;;;1.97;1.50;;;12.40;98.00;;;;;;5015217;28;20984;-68
2023/02/18 00:33:58;;;;;;;1.60;1.40;;;12.40;98.00;;;;;;5015156;28;20972;-69
2023/02/18 00:36:26;;;;;;;1.77;1.27;;;12.40;98.00;;;;;;5015056;28;20467;-69
2023/02/18 00:38:57;;;;;;;1.63;1.20;;;12.40;98.00;;;;;;5015045;28;20543;-69
2023/02/18 00:41:26;;;;;;;1.93;1.20;;;12.40;98.00;;;;;;5015026;28;20463;-69
2023/02/18 00:43:54;;;;;;;1.63;1.30;;;12.40;98.00;;;;;;5015023;28;20515;-69
2023/02/18 00:46:23;;;;;;;1.73;1.53;;;12.40;98.00;;;;;;5015062;28;20483;-69
2023/02/18 00:48:51;;;;;;;1.40;1.20;;;12.40;98.00;;;;;;5015231;28;20459;-69
2023/02/18 00:51:19;;;;;;;1.50;1.40;;;12.40;98.00;;;;;;5013809;28;20473;-69
2023/02/18 00:53:46;;;;;;;1.77;1.47;;;12.40;98.00;;;;;;5014927;28;20468;-69
2023/02/18 00:56:13;;;;;;;1.20;1.20;;;12.40;98.00;;;;;;5013277;28;20473;-70
2023/02/18 00:58:40;;;;;;;1.77;1.40;;;12.40;98.00;;;;;;5014941;28;20491;-69
2023/02/18 01:01:08;;;;;;;3.07;1.50;;;12.40;98.00;;;;;;5014627;28;20457;-69
2023/02/18 01:03:37;;;;;;;1.50;1.30;;;12.50;98.00;;;;;;5014674;28;20973;-68
2023/02/18 01:06:05;;;;;;;2.57;1.27;;;12.40;98.00;;;;;;5014514;28;20456;-69
2023/02/18 01:08:33;;;;;;;1.40;1.20;;;12.40;98.00;;;;;;5014480;28;20968;-69
2023/02/18 01:11:00;;;;;;;2.10;1.50;;;12.40;98.00;;;;;;5014432;28;20471;-69
2023/02/18 01:13:28;;;;;;;2.17;1.40;;;12.50;98.00;;;;;;5014340;28;20485;-69
2023/02/18 01:15:57;;;;;;;2.47;1.30;;;12.40;98.00;;;;;;5014294;28;20470;-69
2023/02/18 01:18:27;;;;;;;1.33;1.20;;;12.50;98.00;;;;;;5014475;28;20521;-68
2023/02/18 01:20:56;;;;;;;1.50;1.20;;;12.50;98.00;;;;;;5014590;28;20462;-70
2023/02/18 01:23:24;;;;;;;1.70;1.40;;;12.40;98.00;;;;;;5014415;28;20541;-68
2023/02/18 01:25:51;;;;;;;1.70;1.30;;;12.40;98.00;;;;;;5014421;28;20459;-68
2023/02/18 01:28:20;;;;;;;1.60;1.30;;;12.50;98.00;;;;;;5014185;28;20479;-69
2023/02/18 01:30:47;;;;;;;1.67;1.60;;;12.50;98.00;;;;;;5013441;28;20560;-69
2023/02/18 01:33:14;;;;;;;1.40;1.30;;;12.50;98.00;;;;;;5014121;28;20453;-68
2023/02/18 01:35:41;;;;;;;1.70;1.30;;;12.40;98.00;;;;;;5014130;28;20955;-69
2023/02/18 01:38:10;;;;;;;1.50;1.20;;;12.40;98.00;;;;;;5013797;28;20456;-69
2023/02/18 01:40:46;;;;;;;2.17;1.57;;;12.40;98.00;;;;;;5014010;28;20492;-70
2023/02/18 01:43:14;;;;;;;2.60;1.43;;;12.40;98.00;;;;;;5013746;28;20486;-69
2023/02/18 01:46:07;;;;;;;1.77;1.40;;;12.50;98.00;;;;;;5013803;28;20468;-69
2023/02/18 01:48:38;;;;;;;1.50;1.30;;;12.40;98.00;;;;;;5012790;28;20469;-70
2023/02/18 01:51:11;;;;;;;3.00;1.30;;;12.40;98.00;;;;;;5013852;28;20860;-69
2023/02/18 01:53:47;;;;;;;2.80;1.47;;;12.40;98.00;;;;;;5012457;28;20642;-70
2023/02/18 01:56:22;;;;;;;1.60;1.30;;;12.40;98.00;;;;;;5013541;28;20464;-69
2023/02/18 01:58:50;;;;;;;1.80;1.47;;;12.40;98.00;;;;;;5013499;28;20469;-69
2023/02/18 02:01:17;;;;;;;2.47;1.70;;;12.40;98.00;;;;;;5013722;28;20527;-70
2023/02/18 02:03:44;;;;;;;2.80;1.60;;;12.40;98.00;;;;;;5013400;28;20469;-70
2023/02/18 02:06:17;;;;;;;3.00;1.60;;;12.40;98.00;;;;;;5013335;28;20466;-69
2023/02/18 02:08:48;;;;;;;2.60;1.57;;;12.40;98.00;;;;;;5013547;28;20462;-69
2023/02/18 02:11:25;;;;;;;3.00;1.73;;;12.40;98.00;;;;;;5011997;28;20984;-69
2023/02/18 02:14:06;;;;;;;1.33;1.30;;;12.50;98.00;;;;;;5013446;28;20971;-70
2023/02/18 02:16:41;;;;;;;1.30;1.20;;;12.50;98.00;;;;;;5013289;28;20667;-69
2023/02/18 02:19:42;;;;;;;2.67;1.50;;;12.50;98.00;;;;;;5012190;28;20491;-69
2023/02/18 02:22:46;;;;;;;1.40;1.23;;;12.40;98.00;;;;;;5013141;28;20496;-69
2023/02/18 02:25:36;;;;;;;1.50;1.17;;;12.40;98.00;;;;;;5012998;28;20457;-68
2023/02/18 02:28:38;;;;;;;1.80;1.47;;;12.40;98.00;;;;;;5013015;28;20465;-69
2023/02/18 02:31:33;;;;;;;1.87;1.30;;;12.40;98.00;;;;;;5013000;28;20455;-70
2023/02/18 02:34:33;;;;;;;2.63;1.47;;;12.50;98.00;;;;;;5012869;28;20493;-69
2023/02/18 02:37:12;;;;;;;2.03;1.33;;;12.50;98.00;;;;;;5002532;28;20512;-68
2023/02/18 02:39:51;;;;;;;1.70;1.30;;;12.50;98.00;;;;;;5012877;28;20537;-68
2023/02/18 02:42:26;;;;;;;1.73;1.43;;;12.50;98.00;;;;;;5011559;28;20481;-68
2023/02/18 02:44:56;;;;;;;2.17;1.57;;;12.50;98.00;;;;;;5012685;28;20461;-68
2023/02/18 02:47:34;;;;;;;1.70;1.20;;;12.50;98.00;;;;;;5012631;28;20976;-68
2023/02/18 02:50:06;;;;;;;1.93;1.47;;;12.50;98.00;;;;;;5012647;28;20990;-69
2023/02/18 02:52:40;;;;;;;2.03;1.50;;;12.50;98.00;;;;;;5012886;28;20941;-69
2023/02/18 02:55:10;;;;;;;3.37;1.50;;;12.50;98.00;;;;;;5012562;28;20469;-69
2023/02/18 02:57:50;;;;;;;2.17;1.30;;;12.50;98.00;;;;;;5012656;28;20860;-69
2023/02/18 03:00:21;;;;;;;1.53;1.27;;;12.40;98.00;;;;;;5012351;28;20494;-69
2023/02/18 03:03:22;;;;;;;2.67;1.60;;;12.50;98.00;;;;;;5012343;28;20468;-69
2023/02/18 03:06:02;;;;;;;1.77;1.40;;;12.50;98.00;;;;;;5008661;28;20462;-69
2023/02/18 03:08:41;;;;;;;1.83;1.30;;;12.40;98.00;;;;;;5012604;28;20645;-70
2023/02/18 03:11:17;;;;;;;2.13;1.43;;;12.40;98.00;;;;;;5012338;28;20856;-68
2023/02/18 03:13:57;;;;;;;2.30;1.60;;;12.30;98.00;;;;;;5012305;28;20462;-69
2023/02/18 03:16:40;;;;;;;2.00;1.50;;;12.30;98.00;;;;;;5012367;28;21270;-68
2023/02/18 03:19:13;;;;;;;1.80;1.50;;;12.30;98.00;;;;;;5012359;28;20465;-69
2023/02/18 03:21:45;;;;;;;1.80;1.50;;;12.40;98.00;;;;;;5012326;28;20465;-68
2023/02/18 03:24:17;;;;;;;3.60;1.57;;;12.40;98.00;;;;;;5010970;28;20519;-68
2023/02/18 03:26:49;;;;;;;1.97;1.27;;;12.30;98.00;;;;;;5012025;28;20451;-68
2023/02/18 03:29:18;;;;;;;2.47;1.70;;;12.30;98.00;;;;;;5011967;28;20460;-69
2023/02/18 03:31:50;;;;;;;1.73;1.37;;;12.30;98.00;;;;;;5011816;28;20465;-69
2023/02/18 03:34:23;;;;;;;3.30;1.50;;;12.30;98.00;;;;;;5011914;28;20472;-70
2023/02/18 03:36:53;;;;;;;1.60;1.47;;;12.40;98.00;;;;;;5011845;28;20479;-69
2023/02/18 03:39:23;;;;;;;1.70;1.30;;;12.30;98.00;;;;;;5011664;28;20464;-69
2023/02/18 03:41:51;;;;;;;3.83;1.60;;;12.30;98.00;;;;;;5011471;28;20465;-69
2023/02/18 03:44:18;;;;;;;2.13;1.50;;;12.30;98.00;;;;;;5010650;28;20879;-68
2023/02/18 03:46:45;;;;;;;2.40;1.43;;;12.30;98.00;;;;;;5011576;28;20953;-69
2023/02/18 03:49:15;;;;;;;1.50;1.43;;;12.30;98.00;;;;;;5011466;28;20457;-69
2023/02/18 03:51:43;;;;;;;2.00;1.53;;;12.40;98.00;;;;;;5010495;28;20453;-69
2023/02/18 03:54:13;;;;;;;2.47;1.67;;;12.30;98.00;;;;;;5011273;28;20459;-69
2023/02/18 03:56:42;;;;;;;1.40;1.40;;;12.30;98.00;;;;;;5011617;28;20460;-69
2023/02/18 03:59:09;;;;;;;1.77;1.47;;;12.40;98.00;;;;;;5011499;28;20493;-68
2023/02/18 04:01:37;;;;;;;1.37;1.30;;;12.30;98.00;;;;;;5011323;28;20492;-69
2023/02/18 04:04:05;;;;;;;1.70;1.50;;;12.30;98.00;;;;;;5011723;28;20452;-69
2023/02/18 04:06:32;;;;;;;1.70;1.40;;;12.30;98.00;;;;;;5010297;28;20955;-69
2023/02/18 04:09:01;;;;;;;2.10;1.43;;;12.30;98.00;;;;;;5011500;28;20456;-69
2023/02/18 04:11:28;;;;;;;2.33;1.23;;;12.30;98.00;;;;;;5011518;28;20455;-70
2023/02/18 04:13:57;;;;;;;1.73;1.20;;;12.20;98.00;;;;;;5011446;28;20455;-69
2023/02/18 04:16:24;;;;;;;1.50;1.20;;;12.20;98.00;;;;;;5010235;28;20474;-68
2023/02/18 04:18:51;;;;;;;2.70;1.40;;;12.30;98.00;;;;;;5011778;28;20458;-69
2023/02/18 04:21:18;;;;;;;1.30;1.20;;;12.30;98.00;;;;;;5010106;28;20536;-68
2023/02/18 04:23:45;;;;;;;1.43;1.23;;;12.30;98.00;;;;;;5011239;28;20458;-69
2023/02/18 04:26:12;;;;;;;1.70;1.50;;;12.30;98.00;;;;;;5010045;28;20834;-69
2023/02/18 04:28:40;;;;;;;3.00;1.40;;;12.40;98.00;;;;;;5011512;28;20465;-69
2023/02/18 04:31:08;;;;;;;2.17;1.40;;;12.40;98.00;;;;;;5011052;28;20466;-69
2023/02/18 04:33:36;;;;;;;1.90;1.33;;;12.40;98.00;;;;;;5011260;28;20969;-69
2023/02/18 04:36:03;;;;;;;1.43;1.33;;;12.40;98.00;;;;;;5011178;28;20461;-69
2023/02/18 04:38:30;;;;;;;1.93;1.40;;;12.40;98.00;;;;;;5011074;28;20554;-69
2023/02/18 04:40:58;;;;;;;2.57;1.20;;;12.40;98.00;;;;;;5010946;28;20484;-69
2023/02/18 04:43:25;;;;;;;1.67;1.23;;;12.40;98.00;;;;;;5010946;28;20499;-69
2023/02/18 04:45:54;;;;;;;1.80;1.30;;;12.40;98.00;;;;;;5011068;28;20459;-69
2023/02/18 04:48:22;;;;;;;2.03;1.33;;;12.30;98.00;;;;;;5011236;28;20464;-69
2023/02/18 04:50:49;;;;;;;1.53;1.20;;;12.30;98.00;;;;;;5011059;28;20453;-69
2023/02/18 04:53:16;;;;;;;2.67;1.67;;;12.30;98.00;;;;;;5010948;28;20480;-69
2023/02/18 04:55:43;;;;;;;1.50;1.23;;;12.30;98.00;;;;;;5011035;28;20463;-69
2023/02/18 04:58:10;;;;;;;1.40;1.33;;;12.30;98.00;;;;;;5011081;28;20460;-69
2023/02/18 05:00:37;;;;;;;2.23;1.40;;;12.30;98.00;;;;;;5009093;28;21012;-70
2023/02/18 05:03:05;;;;;;;1.53;1.20;;;12.30;98.00;;;;;;5011151;28;20473;-69
2023/02/18 05:05:34;;;;;;;1.87;1.30;;;12.30;98.00;;;;;;5011644;28;20456;-69
2023/02/18 05:08:03;;;;;;;1.70;1.20;;;12.30;98.00;;;;;;5014747;28;20657;-69
2023/02/18 05:10:30;;;;;;;1.40;1.13;;;12.30;98.00;;;;;;5014506;28;20462;-69
2023/02/18 05:12:57;;;;;;;1.93;1.23;;;12.30;98.00;;;;;;5013254;28;20474;-69
2023/02/18 05:15:25;;;;;;;1.83;1.40;;;12.30;98.00;;;;;;5014301;28;20477;-69
2023/02/18 05:17:52;;;;;;;2.13;1.40;;;12.30;98.00;;;;;;5013611;28;20461;-69
2023/02/18 05:20:20;;;;;;;1.80;1.37;;;12.30;98.00;;;;;;5014423;28;20486;-68
2023/02/18 05:22:49;;;;;;;2.70;1.40;;;12.20;98.00;;;;;;5014397;28;20900;-69
2023/02/18 05:25:16;;;;;;;1.47;1.20;;;12.20;98.00;;;;;;5014282;28;20464;-69
2023/02/18 05:27:43;;;;;;;1.50;1.40;;;12.20;98.00;;;;;;5014176;28;20467;-69
2023/02/18 05:30:10;;;;;;;1.50;1.30;;;12.20;98.00;;;;;;5014237;28;20663;-69
2023/02/18 05:32:37;;;;;;;1.70;1.50;;;12.20;98.00;;;;;;5014091;28;20844;-69
2023/02/18 05:35:05;;;;;;;1.80;1.30;;;12.20;98.00;;;;;;5013915;28;20458;-69
2023/02/18 05:37:32;;;;;;;2.00;1.50;;;12.20;98.00;;;;;;5013940;28;20473;-70
2023/02/18 05:40:01;;;;;;;3.23;1.30;;;12.20;98.00;;;;;;5013890;28;20464;-70
2023/02/18 05:42:28;;;;;;;1.90;1.20;;;12.20;98.00;;;;;;5013683;28;20464;-69
2023/02/18 05:44:55;;;;;;;1.80;1.30;;;12.20;98.00;;;;;;5014037;28;20966;-69
2023/02/18 05:47:22;;;;;;;1.30;1.20;;;12.20;98.00;;;;;;5013804;28;20461;-69
2023/02/18 05:49:49;;;;;;;2.03;1.30;;;12.20;98.00;;;;;;5013773;28;20453;-69
2023/02/18 05:52:16;;;;;;;1.30;1.10;;;12.20;98.00;;;;;;5013656;28;20494;-70
2023/02/18 05:54:45;;;;;;;2.03;1.30;;;12.20;98.00;;;;;;5013754;28;20470;-70
2023/02/18 05:57:15;;;;;;;1.47;1.30;;;12.20;98.00;;;;;;5012179;28;20452;-69
2023/02/18 05:59:42;;;;;;;1.90;1.50;;;12.10;98.00;;;;;;5013820;28;20544;-68
2023/02/18 06:02:09;;;;;;;1.40;1.30;;;12.10;98.00;;;;;;5013649;28;20488;-69
2023/02/18 06:04:39;;;;;;;1.90;1.40;;;12.10;98.00;;;;;;5013127;28;20457;-69
2023/02/18 06:07:06;;;;;;;1.57;1.50;;;12.10;98.00;;;;;;5012356;28;20455;-69
2023/02/18 06:09:33;;;;;;;1.50;1.20;;;12.10;98.00;;;;;;5013650;28;20830;-69
2023/02/18 06:12:00;;;;;;;2.90;1.70;;;12.10;98.00;;;;;;5012622;28;20462;-69
2023/02/18 06:14:29;;;;;;;2.70;1.37;;;12.10;98.00;;;;;;5013609;28;20658;-69
2023/02/18 06:16:57;;;;;;;2.17;1.50;;;12.00;98.00;;;;;;5013361;28;20462;-69
2023/02/18 06:19:24;;;;;;;1.97;1.30;;;12.10;98.00;;;;;;5013342;28;20469;-69
2023/02/18 06:21:52;;;;;;;1.20;1.20;;;12.10;98.00;;;;;;5013054;28;20486;-69
2023/02/18 06:24:19;;;;;;;1.53;1.33;;;12.10;98.00;;;;;;5013202;28;20478;-69
2023/02/18 06:26:46;;;;;;;1.67;1.20;;;12.00;98.00;;;;;;5013036;28;20461;-69
2023/02/18 06:29:15;;;;;;;2.20;1.33;;;12.00;98.00;;;;;;5013068;28;20463;-69
2023/02/18 06:31:43;;;;;;;1.77;1.40;;;12.00;98.00;;;;;;5012956;28;20537;-69
2023/02/18 06:34:10;;;;;;;1.30;1.20;;;12.00;98.00;;;;;;5012955;28;20461;-69
2023/02/18 06:36:37;;;;;;;2.20;1.50;;;12.10;98.00;;;;;;5012822;28;20916;-70
2023/02/18 06:39:05;;;;;;;1.30;1.10;;;12.00;98.00;;;;;;5012878;28;20525;-69
2023/02/18 06:41:32;;;;;;;1.70;1.20;;;12.00;98.00;;;;;;5012528;28;20505;-69
2023/02/18 06:43:59;;;;;;;2.90;1.33;;;12.00;98.00;;;;;;5011714;28;20465;-69
2023/02/18 06:46:27;;;;;;;1.83;1.37;;;12.00;98.00;;;;;;5012626;28;20816;-69
2023/02/18 06:48:56;;;;;;;2.07;1.50;;;12.00;98.00;;;;;;5012832;28;20959;-70
2023/02/18 06:51:23;;;;;;;1.30;1.20;;;12.00;98.00;;;;;;5012698;28;20457;-69
2023/02/18 06:53:50;;;;;;;1.73;1.20;;;12.00;98.00;;;;;;5012521;28;20471;-69
2023/02/18 06:56:17;;;;;;;2.53;1.77;;;12.00;98.00;;;;;;5011192;28;20453;-69
2023/02/18 06:58:44;;;;;;;2.40;1.40;;;12.10;98.00;;;;;;5012606;28;20868;-69
2023/02/18 07:01:11;;;;;;;2.37;1.30;;;12.10;98.00;;;;;;5012382;28;20488;-68
2023/02/18 07:03:40;;;;;;;1.73;1.40;;;12.10;98.00;;;;;;5012575;28;20459;-64
2023/02/18 07:06:13;;;;;;;1.93;1.30;;;12.10;98.00;;;;;;5012392;28;20462;-64
2023/02/18 07:08:40;;;;;;;1.70;1.10;;;12.00;98.00;;;;;;5012738;28;20453;-63
2023/02/18 07:11:08;;;;;;;1.90;1.30;;;12.10;98.00;;;;;;4994799;28;20458;-66
2023/02/18 07:13:35;;;;;;;1.50;1.27;;;12.10;98.00;;;;;;5011566;28;20880;-65
2023/02/18 07:16:02;;;;;;;2.40;1.20;;;12.20;98.00;;;;;;5012132;28;20466;-65
2023/02/18 07:18:29;;;;;;;1.83;1.40;;;12.10;98.00;;;;;;5012246;28;20460;-64
2023/02/18 07:20:56;;;;;;;4.00;1.40;;;12.20;98.00;;;;;;5010788;28;20476;-65
2023/02/18 07:23:25;;;;;;;1.93;1.27;;;12.20;98.00;;;;;;5012181;28;20473;-64
2023/02/18 07:25:53;;;;;;;1.67;1.27;;;12.20;98.00;;;;;;5010662;28;20503;-64
2023/02/18 07:28:20;;;;;;;1.40;1.20;;;12.20;98.00;;;;;;5011528;28;20990;-65
2023/02/18 07:30:47;;;;;;;2.30;1.20;;;12.20;98.00;;;;;;5011915;28;20452;-65
2023/02/18 07:33:14;;;;;;;1.50;1.33;;;12.20;98.00;;;;;;5011887;28;20451;-65
2023/02/18 07:35:41;;;;;;;2.30;1.47;;;12.20;98.00;;;;;;5012007;28;20468;-64
2023/02/18 07:38:09;;;;;;;1.50;1.40;;;12.20;98.00;;;;;;5011843;28;20472;-64
2023/02/18 07:40:39;;;;;;;1.80;1.47;;;12.20;98.00;;;;;;5011582;28;20456;-65
2023/02/18 07:43:06;;;;;;;1.83;1.40;;;12.20;98.00;;;;;;5011730;28;20962;-65
2023/02/18 07:45:33;;;;;;;1.77;1.47;;;12.20;98.00;;;;;;5011807;28;20471;-64
2023/02/18 07:48:00;;;;;;;2.77;1.47;;;12.20;98.00;;;;;;5011935;28;20835;-66
2023/02/18 07:50:27;;;;;;;1.40;1.20;;;12.30;98.00;;;;;;5011886;28;20824;-65
2023/02/18 07:52:54;;;;;;;2.87;1.70;;;12.30;98.00;;;;;;5011827;28;20461;-64
2023/02/18 07:55:21;;;;;;;1.87;1.50;;;12.30;98.00;;;;;;5011642;28;20462;-64
2023/02/18 07:58:01;;;;;;;2.30;1.57;;;12.40;98.00;;;;;;5011558;28;20468;-67
2023/02/18 08:00:28;;;;;;;2.23;1.40;;;12.40;98.00;;;;;;5011832;28;20528;-64
2023/02/18 08:02:57;;;;;;;1.47;1.30;;;12.40;98.00;;;;;;5011234;28;20954;-65
2023/02/18 08:05:24;;;;;;;1.63;1.50;;;12.50;98.00;;;;;;5011454;28;20829;-64
2023/02/18 08:07:51;;;;;;;1.50;1.47;;;12.50;98.00;;;;;;5011594;28;20464;-65
2023/02/18 08:10:18;;;;;;;2.07;1.60;;;12.50;98.00;;;;;;5011779;28;20474;-64
2023/02/18 08:12:45;;;;;;;1.90;1.40;;;12.50;98.00;;;;;;5010537;28;20462;-64
2023/02/18 08:15:14;;;;;;;1.47;1.43;;;12.60;98.00;;;;;;5011625;28;20464;-65
2023/02/18 08:17:42;;;;;;;3.00;1.30;;;12.60;98.00;;;;;;5011525;28;20459;-64
2023/02/18 08:20:10;;;;;;;2.00;1.40;;;12.70;98.00;;;;;;5011408;28;20535;-64
2023/02/18 08:22:37;;;;;;;1.90;1.50;;;12.70;98.00;;;;;;5011186;28;20489;-63
2023/02/18 08:25:05;;;;;;;2.63;1.67;;;12.70;98.00;;;;;;5011456;28;20917;-64
2023/02/18 08:27:32;;;;;;;2.50;1.40;;;12.70;98.00;;;;;;5011605;28;20513;-65
2023/02/18 08:29:59;;;;;;;1.80;1.50;;;12.60;98.00;;;;;;5011357;28;20460;-64
2023/02/18 08:32:29;;;;;;;3.23;1.20;;;12.70;98.00;;;;;;5011228;28;20458;-64
2023/02/18 08:34:56;;;;;;;2.40;1.70;;;12.70;98.00;;;;;;5011065;28;20516;-64
2023/02/18 08:37:24;;;;;;;1.80;1.33;;;12.70;98.00;;;;;;5011352;28;20460;-64
2023/02/18 08:39:51;;;;;;;1.70;1.17;;;12.70;98.00;;;;;;5011036;28;20462;-64
2023/02/18 08:42:19;;;;;;;2.23;1.40;;;12.70;98.00;;;;;;5014217;28;20495;-64
2023/02/18 08:44:46;;;;;;;2.50;1.40;;;12.80;98.00;;;;;;5014928;28;20462;-63
2023/02/18 08:47:14;;;;;;;1.47;1.43;;;12.90;98.00;;;;;;5013567;28;20451;-64
2023/02/18 08:49:42;;;;;;;2.53;1.70;;;12.90;98.00;;;;;;5014922;28;20460;-65
2023/02/18 08:52:09;;;;;;;1.40;1.30;;;12.90;98.00;;;;;;5014611;28;20469;-64
2023/02/18 08:54:37;;;;;;;2.20;1.40;;;13.00;98.00;;;;;;5015292;28;20465;-64
2023/02/18 08:57:06;;;;;;;1.80;1.40;;;13.00;98.00;;;;;;5014685;28;20453;-63
2023/02/18 08:59:33;;;;;;;2.33;1.60;;;13.00;98.00;;;;;;5014732;28;20478;-64
2023/02/18 09:02:01;;;;;;;2.73;1.67;;;13.00;98.00;;;;;;5013481;28;21036;-64
2023/02/18 09:04:31;;;;;;;2.60;1.57;;;13.10;98.00;;;;;;5014421;28;20466;-64
2023/02/18 09:06:59;;;;;;;1.87;1.50;;;13.10;98.00;;;;;;5014494;28;20457;-66
2023/02/18 09:09:26;;;;;;;1.60;1.40;;;13.10;98.00;;;;;;5014737;28;20462;-66
2023/02/18 09:11:53;;;;;;;2.83;1.60;;;13.10;98.00;;;;;;5014857;28;20467;-64
2023/02/18 09:14:21;;;;;;;2.10;1.60;;;13.20;98.00;;;;;;5014415;28;20464;-65
2023/02/18 09:16:49;;;;;;;1.37;1.30;;;13.30;98.00;;;;;;5014391;28;20468;-65
2023/02/18 09:19:16;;;;;;;1.20;1.10;;;13.30;98.00;;;;;;5014384;28;20467;-66
2023/02/18 09:21:46;;;;;;;2.00;1.50;;;13.70;98.00;;;;;;5014290;28;20486;-65
2023/02/18 09:24:16;;;;;;;2.23;1.57;;;13.90;98.00;;;;;;5014108;28;20627;-64
2023/02/18 09:26:47;;;;;;;1.67;1.30;;;13.80;98.00;;;;;;5014028;28;20499;-64
2023/02/18 09:29:15;;;;;;;1.93;1.30;;;13.70;98.00;;;;;;5014096;28;20460;-65
2023/02/18 09:31:42;;;;;;;1.47;1.30;;;13.80;98.00;;;;;;5013808;28;20973;-65
2023/02/18 09:34:09;;;;;;;1.77;1.50;;;13.70;98.00;;;;;;5014182;28;20462;-64
2023/02/18 09:36:36;;;;;;;1.83;1.50;;;13.70;98.00;;;;;;5013835;28;20465;-63
2023/02/18 09:39:03;;;;;;;1.70;1.30;;;13.80;98.00;;;;;;5013777;28;20465;-64
2023/02/18 09:41:39;;;;;;;1.60;1.40;;;13.70;98.00;;;;;;5013542;28;20484;-66
2023/02/18 09:44:14;;;;;;;1.97;1.50;;;13.80;98.00;;;;;;5013812;28;20463;-66
2023/02/18 09:46:46;;;;;;;4.40;1.47;;;13.80;98.00;;;;;;5013752;28;20867;-65
2023/02/18 09:49:16;;;;;;;1.93;1.50;;;13.90;98.00;;;;;;5013828;28;20959;-64
2023/02/18 09:51:44;;;;;;;5.50;1.27;;;14.00;98.00;;;;;;5013119;28;20463;-65
2023/02/18 09:54:14;;;;;;;3.30;1.63;;;14.00;98.00;;;;;;5013768;28;20461;-65
2023/02/18 09:56:44;;;;;;;2.00;1.37;;;14.00;98.00;;;;;;5013650;28;20468;-64
2023/02/18 09:59:16;;;;;;;1.30;1.27;;;14.10;98.00;;;;;;5013690;28;20972;-64
2023/02/18 10:01:44;;;;;;;1.40;1.40;;;14.10;98.00;;;;;;5013655;28;20491;-64
2023/02/18 10:04:15;;;;;;;1.70;1.50;;;14.10;98.00;;;;;;5013591;28;20475;-64
2023/02/18 10:06:44;;;;;;;1.70;1.30;;;14.10;98.00;;;;;;5013598;28;20506;-64
2023/02/18 10:09:19;;;;;;;1.57;1.40;;;14.10;98.00;;;;;;5013656;28;20516;-63
2023/02/18 10:11:50;;;;;;;2.07;1.40;;;14.10;98.00;;;;;;5013485;28;20512;-65
2023/02/18 10:14:18;;;;;;;2.10;1.60;;;14.10;98.00;;;;;;5013449;28;20478;-65
2023/02/18 10:16:48;;;;;;;2.87;1.30;;;14.10;98.00;;;;;;5013761;28;20468;-65
2023/02/18 10:19:24;;;;;;;1.83;1.40;;;14.20;98.00;;;;;;5013285;28;21022;-64
2023/02/18 10:21:52;;;;;;;1.63;1.50;;;14.20;98.00;;;;;;5012930;28;20487;-64
2023/02/18 10:24:29;;;;;;;2.13;1.30;;;14.10;98.00;;;;;;5012071;28;20504;-65
2023/02/18 10:26:58;;;;;;;1.27;1.20;;;14.10;98.00;;;;;;4992899;28;20879;-64
2023/02/18 10:29:26;;;;;;;2.27;1.43;;;14.10;98.00;;;;;;4992983;28;20474;-64
2023/02/18 10:31:57;;;;;;;1.53;1.27;;;14.10;98.00;;;;;;4991825;28;20521;-64
2023/02/18 10:34:38;;;;;;;2.03;1.40;;;14.10;98.00;;;;;;4993175;28;20469;-67
2023/02/18 10:37:13;;;;;;;1.43;1.40;;;14.20;98.00;;;;;;4992879;28;20467;-64
2023/02/18 10:39:58;;;;;;;1.70;1.57;;;14.30;98.00;;;;;;4992997;28;21008;-64
2023/02/18 10:42:36;;;;;;;2.10;1.50;;;14.40;98.00;;;;;;4992883;28;20578;-63
2023/02/18 10:45:16;;;;;;;2.20;1.47;;;14.50;98.00;;;;;;4993062;28;20517;-64
2023/02/18 10:47:55;;;;;;;1.40;1.20;;;14.60;98.00;;;;;;5003866;28;20466;-66
2023/02/18 10:50:30;;;;;;;3.93;2.00;;;14.60;98.00;;;;;;5012959;28;20466;-64
2023/02/18 10:53:05;;;;;;;1.40;1.30;;;14.70;98.00;;;;;;5013165;28;20470;-65
2023/02/18 10:55:38;;;;;;;2.60;1.47;;;14.70;98.00;;;;;;5012792;28;20532;-66
2023/02/18 10:58:26;;;;;;;1.50;1.47;;;14.70;98.00;;;;;;5013252;28;20459;-64
2023/02/18 11:00:56;;;;;;;1.73;1.50;;;14.80;98.00;;;;;;5012386;28;20452;-67
2023/02/18 11:03:25;;;;;;;3.70;1.27;;;14.80;98.00;;;;;;5011653;28;20488;-64
2023/02/18 11:05:56;;;;;;;10.50;1.80;;;15.00;98.00;;;;;;5012478;28;20454;-64
2023/02/18 11:08:26;;;;;;;2.77;1.30;;;15.10;98.00;;;;;;5012687;28;20511;-65
2023/02/18 11:10:54;;;;;;;1.53;1.40;;;15.20;98.00;;;;;;5012173;28;20468;-65
2023/02/18 11:13:28;;;;;;;1.87;1.43;;;15.20;98.00;;;;;;5012296;28;20465;-64
2023/02/18 11:15:59;;;;;;;2.23;1.40;;;15.10;98.00;;;;;;5012284;28;20879;-64
2023/02/18 11:18:39;;;;;;;1.80;1.50;;;15.20;98.00;;;;;;5012524;28;20790;-66
2023/02/18 11:21:19;;;;;;;2.33;1.70;;;15.20;98.00;;;;;;5012012;28;20468;-65
2023/02/18 11:23:48;;;;;;;3.20;1.50;;;15.30;98.00;;;;;;5011899;28;20493;-64
2023/02/18 11:26:19;;;;;;;1.60;1.40;;;15.40;98.00;;;;;;5011611;28;20470;-66
2023/02/18 11:28:50;;;;;;;2.07;1.60;;;15.30;98.00;;;;;;5011971;28;20460;-64
2023/02/18 11:31:22;;;;;;;2.57;1.50;;;15.30;98.00;;;;;;5011751;28;20516;-65
2023/02/18 11:33:52;;;;;;;3.17;1.47;;;15.20;98.00;;;;;;5011800;28;20496;-64
2023/02/18 11:36:25;;;;;;;1.37;1.33;;;15.20;98.00;;;;;;5011700;28;20456;-66
2023/02/18 11:38:55;;;;;;;1.60;1.40;;;15.20;98.00;;;;;;5011854;28;20953;-66
2023/02/18 11:41:30;;;;;;;2.03;1.67;;;15.20;98.00;;;;;;5011515;28;20486;-64
2023/02/18 11:44:00;;;;;;;2.07;1.40;;;15.30;98.00;;;;;;5011535;28;20527;-65
2023/02/18 11:46:28;;;;;;;1.60;1.20;;;15.20;98.00;;;;;;5011547;28;20467;-65
2023/02/18 11:48:56;;;;;;;1.77;1.30;;;15.40;98.00;;;;;;5011599;28;20452;-65
2023/02/18 11:51:26;;;;;;;1.60;1.53;;;15.40;98.00;;;;;;5011714;28;20458;-65
2023/02/18 11:54:01;;;;;;;1.97;1.30;;;15.40;98.00;;;;;;5011589;28;20453;-65
2023/02/18 11:56:31;;;;;;;2.03;1.40;;;15.30;98.00;;;;;;5011493;28;20457;-64
2023/02/18 11:59:01;;;;;;;1.60;1.40;;;15.30;98.00;;;;;;5011404;28;20836;-64
2023/02/18 12:01:45;;;;;;;3.93;1.87;;;15.30;98.00;;;;;;5011462;28;20464;-65
2023/02/18 12:04:16;;;;;;;1.60;1.50;;;15.20;98.00;;;;;;5010201;28;20451;-64
2023/02/18 12:06:52;;;;;;;1.30;1.20;;;15.10;98.00;;;;;;5011680;28;20874;-65
2023/02/18 12:09:25;;;;;;;1.97;1.47;;;15.10;98.00;;;;;;5011569;28;20492;-64
2023/02/18 12:11:55;;;;;;;1.50;1.47;;;15.10;98.00;;;;;;5011329;28;20481;-66
2023/02/18 12:14:24;;;;;;;2.00;1.40;;;15.10;98.00;;;;;;5011795;28;20943;-65
2023/02/18 12:17:23;;;;;;;1.50;1.37;;;15.20;98.00;;;;;;5015526;28;20461;-65
2023/02/18 12:20:20;;;;;;;1.83;1.30;;;15.20;98.00;;;;;;5015305;28;20463;-65
2023/02/18 12:22:55;;;;;;;1.70;1.40;;;15.40;98.00;;;;;;5015244;28;20493;-66
2023/02/18 12:25:29;;;;;;;1.30;1.20;;;15.50;98.00;;;;;;5015408;28;20510;-65
2023/02/18 12:28:11;;;;;;;1.87;1.47;;;15.50;98.00;;;;;;5015013;28;20462;-66
2023/02/18 12:31:06;;;;;;;1.40;1.20;;;15.40;98.00;;;;;;5014917;28;20460;-65
2023/02/18 12:33:46;;;;;;;1.60;1.30;;;15.60;98.00;;;;;;5012457;28;20523;-64
2023/02/18 12:36:22;;;;;;;2.50;1.43;;;15.60;98.00;;;;;;5014908;28;20475;-65
2023/02/18 12:39:09;;;;;;;1.70;1.30;;;15.50;98.00;;;;;;5014831;28;20469;-63
2023/02/18 12:41:51;;;;;;;1.97;1.33;;;15.60;98.00;;;;;;5014643;28;20561;-64
2023/02/18 12:44:34;;;;;;;1.43;1.30;;;15.50;98.00;;;;;;5014466;28;20485;-64
2023/02/18 12:47:39;;;;;;;1.90;1.43;;;15.40;98.00;;;;;;5014768;28;20457;-63
2023/02/18 12:50:35;;;;;;;1.80;1.43;;;15.20;98.00;;;;;;5001975;28;20456;-63
2023/02/18 12:53:20;;;;;;;1.70;1.43;;;15.20;98.00;;;;;;5014618;28;20474;-64
2023/02/18 12:56:05;;;;;;;1.87;1.40;;;15.20;98.00;;;;;;5014687;28;20455;-64
2023/02/18 12:58:47;;;;;;;1.97;1.53;;;15.10;98.00;;;;;;5014975;28;20502;-64
2023/02/18 13:01:29;;;;;;;2.33;1.50;;;15.10;98.00;;;;;;5014425;28;20472;-64
2023/02/18 13:04:29;;;;;;;1.53;1.40;;;15.10;98.00;;;;;;5014455;28;20496;-64
2023/02/18 13:07:28;;;;;;;1.97;1.30;;;15.10;98.00;;;;;;5014372;28;20462;-66
2023/02/18 13:10:22;;;;;;;1.80;1.60;;;15.20;98.00;;;;;;5014318;28;20451;-65